Terminal Aerodrome Forecast
Issued by NWS

Home | Current Version | Previous Version | Text Only | Print | Product List | Glossary On
Versions: 1 2 3 4 5 6 7 8 9 10 11 12 13
407
FTUS44 KEPZ 300520
TAFDMN
TAF
KDMN 300520Z 3006/0106 13010G20KT P6SM VCTS BKN070CB BKN090 BKN110
     FM300700 11010G20KT P6SM SCT070 BKN100 OVC140
     FM301200 07010G20KT P6SM VCSH SCT070 BKN140 OVC180
     FM301900 16010KT P6SM SCT060 BKN120 BKN180
     FM010400 13008KT P6SM SCT050 BKN110 BKN180=

USA.gov is the U.S. government's official web portal to all federal, state and local government web resources and services.